createdAt,value
2019-04-06T00:02:33.367Z,11.23
2019-04-06T00:05:01.844Z,11.37
2019-04-06T00:07:49.711Z,11.20
2019-04-06T00:10:18.270Z,11.17
2019-04-06T00:12:46.812Z,11.87
2019-04-06T00:15:15.332Z,11.33
2019-04-06T00:17:43.831Z,10.70
2019-04-06T00:20:12.575Z,10.73
2019-04-06T00:22:41.079Z,11.00
2019-04-06T00:25:09.952Z,10.90
2019-04-06T00:27:38.481Z,12.07
2019-04-06T00:30:08.870Z,11.17
2019-04-06T00:32:44.847Z,10.60
2019-04-06T00:35:13.517Z,11.50
2019-04-06T00:37:41.979Z,11.60
2019-04-06T00:40:10.873Z,11.20
2019-04-06T00:42:39.419Z,11.77
2019-04-06T00:45:08.249Z,9.60
2019-04-06T00:47:36.794Z,10.97
2019-04-06T00:50:07.263Z,10.70
2019-04-06T00:52:35.766Z,10.73
2019-04-06T00:55:05.270Z,10.43
2019-04-06T00:57:33.788Z,10.57
2019-04-06T01:00:02.282Z,10.37
2019-04-06T01:02:30.748Z,10.20
2019-04-06T01:04:59.198Z,10.73
2019-04-06T01:07:27.680Z,10.70
2019-04-06T01:09:56.142Z,11.03
2019-04-06T01:12:24.616Z,11.30
2019-04-06T01:14:53.163Z,10.20
2019-04-06T01:17:21.626Z,11.07
2019-04-06T01:19:50.322Z,11.03
2019-04-06T01:22:18.845Z,10.90
2019-04-06T01:24:47.298Z,11.37
2019-04-06T01:27:15.866Z,10.60
2019-04-06T01:29:44.389Z,10.73
2019-04-06T01:32:12.844Z,11.27
2019-04-06T01:34:41.323Z,10.67
2019-04-06T01:37:09.883Z,10.40
2019-04-06T01:39:38.426Z,10.93
2019-04-06T01:42:06.869Z,11.27
2019-04-06T01:44:35.370Z,11.30
2019-04-06T01:47:03.825Z,10.50
2019-04-06T01:49:32.274Z,10.50
2019-04-06T01:52:20.069Z,10.43
2019-04-06T01:54:56.196Z,11.47
2019-04-06T01:57:24.713Z,10.87
2019-04-06T01:59:53.342Z,11.00
2019-04-06T02:02:23.453Z,11.47
2019-04-06T02:04:51.923Z,12.17
2019-04-06T02:07:20.397Z,11.60
2019-04-06T02:09:48.929Z,11.20
2019-04-06T02:12:17.463Z,11.80
2019-04-06T02:14:45.970Z,12.57
2019-04-06T02:17:14.455Z,11.30
2019-04-06T02:19:42.938Z,10.53
2019-04-06T02:22:11.508Z,10.60
2019-04-06T02:24:40.041Z,11.23
2019-04-06T02:27:08.580Z,9.90
2019-04-06T02:29:37.146Z,11.30
2019-04-06T02:32:07.375Z,10.97
2019-04-06T02:34:37.630Z,11.07
2019-04-06T02:37:07.744Z,9.87
2019-04-06T02:39:40.727Z,10.70
2019-04-06T02:42:10.896Z,9.90
2019-04-06T02:44:39.389Z,10.97
2019-04-06T02:47:07.915Z,11.03
2019-04-06T02:49:36.375Z,10.57
2019-04-06T02:52:04.862Z,11.70
2019-04-06T02:54:33.326Z,11.90
2019-04-06T02:57:01.793Z,10.60
2019-04-06T02:59:30.346Z,10.50
2019-04-06T03:01:58.918Z,10.73
2019-04-06T03:04:27.821Z,10.30
2019-04-06T03:06:56.646Z,10.13
2019-04-06T03:09:25.311Z,11.00
2019-04-06T03:11:53.954Z,10.43
2019-04-06T03:14:22.694Z,10.23
2019-04-06T03:16:51.138Z,11.07
2019-04-06T03:19:19.774Z,10.80
2019-04-06T03:21:48.420Z,10.13
2019-04-06T03:24:17.127Z,11.33
2019-04-06T03:26:59.763Z,10.73
2019-04-06T03:29:15.948Z,10.47
2019-04-06T03:31:44.866Z,10.57
2019-04-06T03:34:19.825Z,10.37
2019-04-06T03:36:43.688Z,11.17
2019-04-06T03:39:12.517Z,10.93
2019-04-06T03:41:41.284Z,11.27
2019-04-06T03:44:09.834Z,11.20
2019-04-06T03:46:38.378Z,9.63
2019-04-06T03:49:06.882Z,11.47
2019-04-06T03:51:35.401Z,10.07
2019-04-06T03:54:03.942Z,11.13
2019-04-06T03:56:32.484Z,10.17
2019-04-06T03:59:01.031Z,10.47
2019-04-06T04:01:29.636Z,10.03
2019-04-06T04:03:58.095Z,10.67
2019-04-06T04:06:26.553Z,9.97
2019-04-06T04:08:55.331Z,10.13
2019-04-06T04:11:24.033Z,9.57
2019-04-06T04:13:52.697Z,10.23
2019-04-06T04:16:21.166Z,10.53
2019-04-06T04:18:49.704Z,10.13
2019-04-06T04:21:18.323Z,10.17
2019-04-06T04:23:47.135Z,10.90
2019-04-06T04:26:16.380Z,9.63
2019-04-06T04:28:44.898Z,10.43
2019-04-06T04:31:13.447Z,10.73
2019-04-06T04:33:42.012Z,10.03
2019-04-06T04:36:10.514Z,10.57
2019-04-06T04:38:39.173Z,10.83
2019-04-06T04:41:07.863Z,10.73
2019-04-06T04:43:36.605Z,9.60
2019-04-06T04:46:05.484Z,10.00
2019-04-06T04:48:34.019Z,10.03
2019-04-06T04:51:02.739Z,10.73
2019-04-06T04:53:31.215Z,10.33
2019-04-06T04:55:59.698Z,9.47
2019-04-06T04:58:28.238Z,10.17
2019-04-06T05:00:56.824Z,10.70
2019-04-06T05:03:25.358Z,10.33
2019-04-06T05:05:53.858Z,10.27
2019-04-06T05:08:22.318Z,11.00
2019-04-06T05:10:50.927Z,10.23
2019-04-06T05:13:19.415Z,12.20
2019-04-06T05:16:11.733Z,11.23
2019-04-06T05:18:41.621Z,25.07
2019-04-06T05:21:11.814Z,19.77
2019-04-06T05:23:40.354Z,13.30
2019-04-06T05:26:08.893Z,11.83
2019-04-06T05:28:37.461Z,13.30
2019-04-06T05:31:05.988Z,12.57
2019-04-06T05:33:34.818Z,11.07
2019-04-06T05:36:03.609Z,10.43
2019-04-06T05:38:32.065Z,9.67
2019-04-06T05:41:00.521Z,10.17
2019-04-06T05:43:28.983Z,12.00
2019-04-06T05:45:57.479Z,10.70
2019-04-06T05:48:26.144Z,13.07
2019-04-06T05:50:54.769Z,11.07
2019-04-06T05:53:23.579Z,10.97
2019-04-06T05:55:52.022Z,10.33
2019-04-06T05:58:20.593Z,10.63
2019-04-06T06:00:49.071Z,9.70
2019-04-06T06:03:17.602Z,10.50
2019-04-06T06:05:46.414Z,10.93
2019-04-06T06:08:14.911Z,10.90
2019-04-06T06:10:43.375Z,11.17
2019-04-06T06:13:11.828Z,10.30
2019-04-06T06:15:40.308Z,10.83
2019-04-06T06:18:08.842Z,11.37
2019-04-06T06:20:37.301Z,9.60
2019-04-06T06:23:05.800Z,11.00
2019-04-06T06:25:34.328Z,10.20
2019-04-06T06:28:13.501Z,9.70
2019-04-06T06:30:33.059Z,9.27
2019-04-06T06:33:01.829Z,9.53
2019-04-06T06:35:30.352Z,9.33
2019-04-06T06:37:58.908Z,9.50
2019-04-06T06:40:27.369Z,9.70
2019-04-06T06:42:55.834Z,9.33
2019-04-06T06:45:36.294Z,10.83
2019-04-06T06:48:05.274Z,11.03
2019-04-06T06:50:34.672Z,10.50
2019-04-06T06:53:03.609Z,10.10
2019-04-06T06:55:32.547Z,12.03
2019-04-06T06:58:01.278Z,9.20
2019-04-06T07:00:29.791Z,9.70
2019-04-06T07:02:58.237Z,10.20
2019-04-06T07:05:26.750Z,9.93
2019-04-06T07:07:55.341Z,8.80
2019-04-06T07:10:24.147Z,9.27
2019-04-06T07:12:52.649Z,9.27
2019-04-06T07:15:21.242Z,9.87
2019-04-06T07:17:50.662Z,9.67
2019-04-06T07:20:19.511Z,10.50
2019-04-06T07:22:48.144Z,9.40
2019-04-06T07:25:16.947Z,9.23
2019-04-06T07:27:45.422Z,9.83
2019-04-06T07:30:14.279Z,9.77
2019-04-06T07:32:43.206Z,9.27
2019-04-06T07:35:12.049Z,10.37
2019-04-06T07:37:40.555Z,9.27
2019-04-06T07:40:09.780Z,9.07
2019-04-06T07:42:39.226Z,8.80
2019-04-06T07:45:08.778Z,9.17
2019-04-06T07:47:37.255Z,9.53
2019-04-06T07:50:07.059Z,10.73
2019-04-06T07:52:36.390Z,10.47
2019-04-06T07:55:08.506Z,8.70
2019-04-06T07:57:36.986Z,8.53
2019-04-06T08:00:07.554Z,9.03
2019-04-06T08:02:36.020Z,9.20
2019-04-06T08:05:06.679Z,8.07
2019-04-06T08:07:35.184Z,8.53
2019-04-06T08:10:05.338Z,9.00
2019-04-06T08:12:33.839Z,8.47
2019-04-06T08:15:07.131Z,8.43
2019-04-06T08:17:35.863Z,9.33
2019-04-06T08:20:07.736Z,8.43
2019-04-06T08:22:36.526Z,8.90
2019-04-06T08:25:06.933Z,8.73
2019-04-06T08:27:35.549Z,8.90
2019-04-06T08:30:07.084Z,8.43
2019-04-06T08:32:35.583Z,9.07
2019-04-06T08:35:06.268Z,8.40
2019-04-06T08:37:34.788Z,9.33
2019-04-06T08:40:05.398Z,8.23
2019-04-06T08:42:34.085Z,8.77
2019-04-06T08:45:02.808Z,8.53
2019-04-06T08:47:31.276Z,8.27
2019-04-06T08:50:00.254Z,8.53
2019-04-06T08:52:28.745Z,7.77
2019-04-06T08:54:57.220Z,8.60
2019-04-06T08:57:25.834Z,8.13
2019-04-06T08:59:54.732Z,8.73
2019-04-06T09:02:23.371Z,8.27
2019-04-06T09:04:51.904Z,9.00
2019-04-06T09:07:20.504Z,9.00
2019-04-06T09:09:49.110Z,7.77
2019-04-06T09:12:17.581Z,9.30
2019-04-06T09:14:46.036Z,8.57
2019-04-06T09:17:14.642Z,9.27
2019-04-06T09:19:43.228Z,7.40
2019-04-06T09:22:11.868Z,9.10
2019-04-06T09:24:40.440Z,9.03
2019-04-06T09:27:08.902Z,8.90
2019-04-06T09:29:37.449Z,10.03
2019-04-06T09:32:06.011Z,7.63
2019-04-06T09:34:34.466Z,7.87
2019-04-06T09:37:02.929Z,9.43
2019-04-06T09:39:31.490Z,8.43
2019-04-06T09:42:00.126Z,8.57
2019-04-06T09:44:42.304Z,8.10
2019-04-06T09:47:12.404Z,7.37
2019-04-06T09:49:58.596Z,7.13
2019-04-06T09:52:40.725Z,8.27
2019-04-06T09:55:16.884Z,7.80
2019-04-06T09:58:05.372Z,9.10
2019-04-06T10:00:35.748Z,8.57
2019-04-06T10:03:06.215Z,7.03
2019-04-06T10:05:36.323Z,7.70
2019-04-06T10:08:09.619Z,7.27
2019-04-06T10:10:48.506Z,7.43
2019-04-06T10:13:21.118Z,7.70
2019-04-06T10:16:26.900Z,7.47
2019-04-06T10:19:03.106Z,6.10
2019-04-06T10:21:39.090Z,7.67
2019-04-06T10:24:20.442Z,7.13
2019-04-06T10:26:53.343Z,7.60
2019-04-06T10:29:23.460Z,6.53
2019-04-06T10:31:53.568Z,8.03
2019-04-06T10:34:32.275Z,7.13
2019-04-06T10:37:05.082Z,8.77
2019-04-06T10:39:35.296Z,7.70
2019-04-06T10:42:06.105Z,8.57
2019-04-06T10:44:52.339Z,7.97
2019-04-06T10:47:31.178Z,7.40
2019-04-06T10:50:07.317Z,7.77
2019-04-06T10:52:43.346Z,7.87
2019-04-06T10:55:13.674Z,7.50
2019-04-06T10:57:49.907Z,8.40
2019-04-06T11:00:36.412Z,7.77
2019-04-06T11:03:06.716Z,8.03
2019-04-06T11:05:36.818Z,8.07
2019-04-06T11:08:21.813Z,8.93
2019-04-06T11:10:57.506Z,7.77
2019-04-06T11:13:27.989Z,8.83
2019-04-06T11:16:04.005Z,7.73
2019-04-06T11:18:43.036Z,7.67
2019-04-06T11:21:13.401Z,7.70
2019-04-06T11:23:43.823Z,7.90
2019-04-06T11:26:33.023Z,8.27
2019-04-06T11:29:14.823Z,7.70
2019-04-06T11:32:02.818Z,8.70
2019-04-06T11:34:32.986Z,7.77
2019-04-06T11:37:21.307Z,8.60
2019-04-06T11:40:09.266Z,7.93
2019-04-06T11:42:55.868Z,7.93
2019-04-06T11:45:38.340Z,8.37
2019-04-06T11:48:17.761Z,8.03
2019-04-06T11:50:57.340Z,8.23
2019-04-06T11:53:33.162Z,8.37
2019-04-06T11:56:05.984Z,8.37
2019-04-06T11:58:45.162Z,7.50
2019-04-06T12:01:24.736Z,8.63
2019-04-06T12:04:13.082Z,7.40
2019-04-06T12:06:43.195Z,7.90
2019-04-06T12:09:31.520Z,7.90
2019-04-06T12:12:18.507Z,7.43
2019-04-06T12:15:04.047Z,7.27
2019-04-06T12:17:37.077Z,8.00
2019-04-06T12:20:23.969Z,7.90
2019-04-06T12:22:54.218Z,7.70
2019-04-06T12:25:30.106Z,8.27
2019-04-06T12:28:22.224Z,8.03
2019-04-06T12:30:52.820Z,7.73
2019-04-06T12:33:23.106Z,8.30
2019-04-06T12:35:53.303Z,8.20
2019-04-06T12:38:35.589Z,7.77
2019-04-06T12:41:18.296Z,8.00
2019-04-06T12:43:48.709Z,8.23
2019-04-06T12:46:21.721Z,7.20
2019-04-06T12:48:55.069Z,7.17
2019-04-06T12:51:25.310Z,7.67
2019-04-06T12:53:58.931Z,7.47
2019-04-06T12:56:32.246Z,7.67
2019-04-06T12:59:02.583Z,7.97
2019-04-06T13:01:44.456Z,7.60
2019-04-06T13:04:29.543Z,7.40
2019-04-06T13:07:14.539Z,7.50
2019-04-06T13:09:50.537Z,8.47
2019-04-06T13:12:39.131Z,8.43
2019-04-06T13:15:09.953Z,8.50
2019-04-06T13:17:48.625Z,10.33
2019-04-06T13:20:35.048Z,9.97
2019-04-06T13:23:05.248Z,9.03
2019-04-06T13:25:44.186Z,7.83
2019-04-06T13:28:17.220Z,8.10
2019-04-06T13:31:01.429Z,8.27
2019-04-06T13:33:39.942Z,8.27
2019-04-06T13:36:26.418Z,8.13
2019-04-06T13:39:07.280Z,7.70
2019-04-06T13:41:55.526Z,8.03
2019-04-06T13:44:41.929Z,7.57
2019-04-06T13:47:12.226Z,7.13
2019-04-06T13:49:54.982Z,7.50
2019-04-06T13:52:41.353Z,7.17
2019-04-06T13:55:11.690Z,6.80
2019-04-06T13:57:41.855Z,6.57
2019-04-06T14:00:24.294Z,6.30
2019-04-06T14:03:10.521Z,7.53
2019-04-06T14:05:46.443Z,7.43
2019-04-06T14:08:19.065Z,7.50
2019-04-06T14:10:57.916Z,7.53
2019-04-06T14:13:43.147Z,7.30
2019-04-06T14:16:13.514Z,7.13
2019-04-06T14:18:46.808Z,7.17
2019-04-06T14:21:19.833Z,8.03
2019-04-06T14:23:50.101Z,7.17
2019-04-06T14:26:20.215Z,7.30
2019-04-06T14:28:50.439Z,6.93
2019-04-06T14:31:30.594Z,6.77
2019-04-06T14:34:15.961Z,7.17
2019-04-06T14:36:52.001Z,8.60
2019-04-06T14:39:27.946Z,6.93
2019-04-06T14:41:58.116Z,7.40
2019-04-06T14:44:31.123Z,6.70
2019-04-06T14:47:04.080Z,7.73
2019-04-06T14:49:37.087Z,7.43
2019-04-06T14:52:07.363Z,6.70
2019-04-06T14:54:37.931Z,6.70
2019-04-06T14:57:17.145Z,8.30
2019-04-06T14:59:53.216Z,7.27
2019-04-06T15:02:35.456Z,7.77
2019-04-06T15:05:07.835Z,8.23
2019-04-06T15:07:44.013Z,9.50
2019-04-06T15:10:14.363Z,7.63
2019-04-06T15:12:47.174Z,10.23
2019-04-06T15:15:19.977Z,7.63
2019-04-06T15:17:56.000Z,15.00
2019-04-06T15:20:26.125Z,8.70
2019-04-06T15:22:56.237Z,7.73
2019-04-06T15:25:28.425Z,8.57
2019-04-06T15:28:15.024Z,7.20
2019-04-06T15:30:50.900Z,7.37
2019-04-06T15:33:39.027Z,8.67
2019-04-06T15:36:09.197Z,7.10
2019-04-06T15:38:48.630Z,7.17
2019-04-06T15:41:21.625Z,7.13
2019-04-06T15:43:57.539Z,7.67
2019-04-06T15:46:43.772Z,7.63
2019-04-06T15:49:22.974Z,7.67
2019-04-06T15:51:53.155Z,6.80
2019-04-06T15:54:29.368Z,7.27
2019-04-06T15:57:08.690Z,6.60
2019-04-06T15:59:58.198Z,6.27
2019-04-06T16:02:44.569Z,13.20
2019-04-06T16:05:15.020Z,12.77
2019-04-06T16:07:45.120Z,8.77
2019-04-06T16:10:24.145Z,9.43
2019-04-06T16:12:54.300Z,7.40
2019-04-06T16:15:24.839Z,8.10
2019-04-06T16:17:56.119Z,7.47
2019-04-06T16:20:32.466Z,7.53
2019-04-06T16:23:05.498Z,7.43
2019-04-06T16:25:38.363Z,7.47
2019-04-06T16:28:17.235Z,7.87
2019-04-06T16:30:51.448Z,7.83
2019-04-06T16:33:22.183Z,8.10
2019-04-06T16:35:52.287Z,8.20
2019-04-06T16:38:23.075Z,8.87
2019-04-06T16:40:53.363Z,9.27
2019-04-06T16:43:39.898Z,10.43
2019-04-06T16:46:15.739Z,9.57
2019-04-06T16:48:45.952Z,9.73
2019-04-06T16:51:21.820Z,9.77
2019-04-06T16:53:57.771Z,10.40
2019-04-06T16:56:39.605Z,9.60
2019-04-06T16:59:09.882Z,11.03
2019-04-06T17:01:40.041Z,10.53
2019-04-06T17:04:15.860Z,12.60
2019-04-06T17:06:48.384Z,10.90
2019-04-06T17:09:21.328Z,13.70
2019-04-06T17:11:57.379Z,14.27
2019-04-06T17:14:53.865Z,16.70
2019-04-06T17:17:29.995Z,23.60
2019-04-06T17:20:16.756Z,14.40
2019-04-06T17:22:47.331Z,13.50
2019-04-06T17:25:29.549Z,16.03
2019-04-06T17:28:00.563Z,16.67
2019-04-06T17:30:30.791Z,22.53
2019-04-06T17:33:03.582Z,21.23
2019-04-06T17:35:33.699Z,18.10
2019-04-06T17:38:03.870Z,23.60
2019-04-06T17:40:40.076Z,37.93
2019-04-06T17:43:19.325Z,34.53
2019-04-06T17:45:55.273Z,27.77
2019-04-06T17:48:28.361Z,47.27
2019-04-06T17:51:17.658Z,40.77
2019-04-06T17:54:04.125Z,59.20
2019-04-06T17:56:34.309Z,55.63
2019-04-06T17:59:10.048Z,79.17
2019-04-06T18:01:57.193Z,62.77
2019-04-06T18:04:33.906Z,63.80
2019-04-06T18:07:04.250Z,78.30
2019-04-06T18:09:51.852Z,77.23
2019-04-06T18:12:28.079Z,84.03
2019-04-06T18:14:56.644Z,55.43
2019-04-06T18:17:25.503Z,28.67
2019-04-06T18:19:54.169Z,21.40
2019-04-06T18:22:41.977Z,38.80
2019-04-06T18:25:10.519Z,41.27
2019-04-06T18:27:39.672Z,47.53
2019-04-06T18:30:10.292Z,61.80
2019-04-06T18:32:57.454Z,36.33
2019-04-06T18:35:16.701Z,26.77
2019-04-06T18:37:47.066Z,33.03
2019-04-06T18:40:23.685Z,43.23
2019-04-06T18:42:52.924Z,86.23
2019-04-06T18:45:21.950Z,80.60
2019-04-06T18:47:50.834Z,71.50
2019-04-06T18:50:19.796Z,71.47
2019-04-06T18:52:48.682Z,53.90
2019-04-06T18:55:17.746Z,41.33
2019-04-06T18:57:46.329Z,36.20
2019-04-06T19:00:16.029Z,32.63
2019-04-06T19:02:44.702Z,28.30
2019-04-06T19:05:13.980Z,23.57
2019-04-06T19:07:42.440Z,25.37
2019-04-06T19:10:11.752Z,26.83
2019-04-06T19:12:40.507Z,25.10
2019-04-06T19:15:09.346Z,22.33
2019-04-06T19:17:38.453Z,21.00
2019-04-06T19:20:13.829Z,19.93
2019-04-06T19:22:42.533Z,20.43
2019-04-06T19:25:11.585Z,21.53
2019-04-06T19:27:59.885Z,21.23
2019-04-06T19:30:28.764Z,21.90
2019-04-06T19:32:57.597Z,23.23
2019-04-06T19:35:26.158Z,23.43
2019-04-06T19:37:55.122Z,24.93
2019-04-06T19:40:27.093Z,24.63
2019-04-06T19:42:55.642Z,24.13
2019-04-06T19:45:24.183Z,23.33
2019-04-06T19:47:52.864Z,23.70
2019-04-06T19:50:22.173Z,23.70
2019-04-06T19:52:51.056Z,23.57
2019-04-06T19:55:20.491Z,25.60
2019-04-06T19:57:49.449Z,24.30
2019-04-06T20:00:20.284Z,25.37
2019-04-06T20:02:48.749Z,24.17
2019-04-06T20:05:17.211Z,25.13
2019-04-06T20:07:45.670Z,23.77
2019-04-06T20:10:15.101Z,24.10
2019-04-06T20:12:43.661Z,24.03
2019-04-06T20:15:12.607Z,25.93
2019-04-06T20:17:41.231Z,24.90
2019-04-06T20:20:29.048Z,25.77
2019-04-06T20:22:58.059Z,25.07
2019-04-06T20:25:29.601Z,24.80
2019-04-06T20:27:58.785Z,25.93
2019-04-06T20:30:28.443Z,25.03
2019-04-06T20:32:57.087Z,25.13
2019-04-06T20:35:25.545Z,24.97
2019-04-06T20:37:54.415Z,23.80
2019-04-06T20:40:23.398Z,22.60
2019-04-06T20:42:52.626Z,21.77
2019-04-06T20:45:21.194Z,21.97
2019-04-06T20:47:49.770Z,23.60
2019-04-06T20:50:18.244Z,22.07
2019-04-06T20:52:46.784Z,23.00
2019-04-06T20:55:15.473Z,22.03
2019-04-06T20:57:44.572Z,24.13
2019-04-06T21:00:13.286Z,22.27
2019-04-06T21:02:41.749Z,22.57
2019-04-06T21:05:10.269Z,23.10
2019-04-06T21:07:40.424Z,20.73
2019-04-06T21:10:09.826Z,21.07
2019-04-06T21:12:38.734Z,23.43
2019-04-06T21:15:17.683Z,21.07
2019-04-06T21:17:38.630Z,21.43
2019-04-06T21:20:15.268Z,19.10
2019-04-06T21:22:45.207Z,22.17
2019-04-06T21:25:14.020Z,21.17
2019-04-06T21:27:44.114Z,21.40
2019-04-06T21:30:13.783Z,22.27
2019-04-06T21:32:42.505Z,22.60
2019-04-06T21:35:11.606Z,22.00
2019-04-06T21:37:40.145Z,21.93
2019-04-06T21:40:09.186Z,22.30
2019-04-06T21:42:37.829Z,20.80
2019-04-06T21:45:07.865Z,21.93
2019-04-06T21:47:36.435Z,21.00
2019-04-06T21:50:08.692Z,19.70
2019-04-06T21:52:38.638Z,21.00
2019-04-06T21:55:10.294Z,19.87
2019-04-06T21:57:38.964Z,20.70
2019-04-06T22:00:10.042Z,21.10
2019-04-06T22:02:39.546Z,22.40
2019-04-06T22:05:09.373Z,22.27
2019-04-06T22:07:47.151Z,20.30
2019-04-06T22:10:08.479Z,22.20
2019-04-06T22:12:36.946Z,21.33
2019-04-06T22:15:06.481Z,22.87
2019-04-06T22:17:35.662Z,23.13
2019-04-06T22:20:05.930Z,22.53
2019-04-06T22:22:35.361Z,22.47
2019-04-06T22:25:05.824Z,23.30
2019-04-06T22:27:34.594Z,23.07
2019-04-06T22:30:06.873Z,21.87
2019-04-06T22:32:35.575Z,20.93
2019-04-06T22:35:07.271Z,22.03
2019-04-06T22:37:36.313Z,20.67
2019-04-06T22:40:08.882Z,19.90
2019-04-06T22:42:37.364Z,20.60
2019-04-06T22:45:09.298Z,20.27
2019-04-06T22:47:38.146Z,20.77
2019-04-06T22:50:07.727Z,22.13
2019-04-06T22:52:36.748Z,22.00
2019-04-06T22:55:09.491Z,20.90
2019-04-06T22:57:38.671Z,21.33
2019-04-06T23:00:11.403Z,21.57
2019-04-06T23:02:57.771Z,21.60
2019-04-06T23:05:27.942Z,21.90
2019-04-06T23:07:56.695Z,23.03
2019-04-06T23:10:25.171Z,21.90
2019-04-06T23:12:54.124Z,21.30
2019-04-06T23:15:23.270Z,22.43
2019-04-06T23:17:52.185Z,22.80
2019-04-06T23:20:26.762Z,23.53
2019-04-06T23:22:55.441Z,23.23
2019-04-06T23:25:24.395Z,23.57
2019-04-06T23:27:53.344Z,22.83
2019-04-06T23:30:22.667Z,22.97
2019-04-06T23:32:51.331Z,23.63
2019-04-06T23:35:19.785Z,20.20
2019-04-06T23:37:49.192Z,21.73
2019-04-06T23:40:18.595Z,23.57
2019-04-06T23:42:47.131Z,21.57
2019-04-06T23:45:15.680Z,23.00
2019-04-06T23:47:44.506Z,21.77
2019-04-06T23:50:13.446Z,21.20
2019-04-06T23:52:42.345Z,21.27
2019-04-06T23:55:11.941Z,21.60
2019-04-06T23:57:40.678Z,21.80
